createdAt,value
2022-09-10T00:03:40.996Z,19.40
2022-09-10T00:07:42.761Z,19.50
2022-09-10T00:11:45.685Z,19.20
2022-09-10T00:15:50.022Z,18.80
2022-09-10T00:19:51.741Z,18.50
2022-09-10T00:23:54.432Z,18.00
2022-09-10T00:27:56.073Z,18.30
2022-09-10T00:31:57.763Z,18.20
2022-09-10T00:35:59.491Z,17.80
2022-09-10T00:40:02.172Z,18.30
2022-09-10T00:44:25.689Z,18.40
2022-09-10T00:48:30.746Z,18.50
2022-09-10T00:52:38.897Z,18.80
2022-09-10T00:56:43.030Z,18.10
2022-09-10T01:00:45.152Z,18.70
2022-09-10T01:04:47.306Z,18.80
2022-09-10T01:08:48.984Z,18.00
2022-09-10T01:13:07.581Z,18.30
2022-09-10T01:17:25.667Z,19.00
2022-09-10T01:21:57.405Z,18.70
2022-09-10T01:26:31.346Z,19.20
2022-09-10T01:30:42.631Z,19.40
2022-09-10T01:35:12.237Z,19.60
2022-09-10T01:39:16.971Z,19.80
2022-09-10T01:43:18.747Z,19.50
2022-09-10T01:47:56.952Z,19.50
2022-09-10T01:52:01.358Z,19.50
2022-09-10T01:56:17.932Z,19.10
2022-09-10T02:00:21.985Z,18.80
2022-09-10T02:04:26.282Z,18.50
2022-09-10T02:08:37.777Z,18.70
2022-09-10T02:12:40.166Z,19.00
2022-09-10T02:16:47.665Z,18.80
2022-09-10T02:20:55.689Z,18.50
2022-09-10T02:24:57.673Z,18.50
2022-09-10T02:29:03.046Z,18.90
2022-09-10T02:33:04.895Z,19.30
2022-09-10T02:37:06.605Z,19.80
2022-09-10T02:41:09.753Z,19.50
2022-09-10T02:45:11.400Z,19.50
2022-09-10T02:49:13.374Z,19.80
2022-09-10T02:53:15.069Z,20.20
2022-09-10T02:57:16.737Z,20.10
2022-09-10T03:01:20.815Z,19.70
2022-09-10T03:05:22.810Z,19.50
2022-09-10T03:09:28.814Z,19.80
2022-09-10T03:13:30.719Z,19.80
2022-09-10T03:17:32.787Z,19.00
2022-09-10T03:21:35.789Z,18.10
2022-09-10T03:25:37.638Z,17.70
2022-09-10T03:29:39.338Z,18.10
2022-09-10T03:33:41.153Z,18.50
2022-09-10T03:37:44.236Z,18.10
2022-09-10T03:41:47.883Z,17.80
2022-09-10T03:45:50.868Z,18.50
2022-09-10T03:49:52.552Z,18.90
2022-09-10T03:53:54.263Z,19.00
2022-09-10T03:57:56.393Z,18.40
2022-09-10T04:01:58.125Z,18.60
2022-09-10T04:05:59.938Z,19.00
2022-09-10T04:10:01.570Z,18.70
2022-09-10T04:14:03.281Z,17.70
2022-09-10T04:18:06.178Z,17.30
2022-09-10T04:22:08.338Z,17.10
2022-09-10T04:26:18.657Z,17.50
2022-09-10T04:30:20.526Z,17.40
2022-09-10T04:34:22.851Z,17.70
2022-09-10T04:38:25.326Z,18.30
2022-09-10T04:42:28.258Z,18.10
2022-09-10T04:46:29.917Z,18.80
2022-09-10T04:50:31.653Z,19.40
2022-09-10T04:54:33.713Z,19.40
2022-09-10T04:58:38.903Z,19.30
2022-09-10T05:02:41.073Z,18.90
2022-09-10T05:06:42.887Z,18.30
2022-09-10T05:10:45.296Z,18.30
2022-09-10T05:14:47.124Z,18.90
2022-09-10T05:18:48.833Z,19.20
2022-09-10T05:22:50.537Z,19.20
2022-09-10T05:26:52.364Z,19.10
2022-09-10T05:30:54.006Z,19.30
2022-09-10T05:34:55.845Z,19.10
2022-09-10T05:38:59.850Z,19.20
2022-09-10T05:43:01.733Z,19.50
2022-09-10T05:47:03.441Z,19.80
2022-09-10T05:51:05.067Z,19.70
2022-09-10T05:55:07.445Z,19.50
2022-09-10T05:59:10.623Z,19.50
2022-09-10T06:03:12.682Z,19.60
2022-09-10T06:07:14.514Z,19.80
2022-09-10T06:11:16.214Z,19.60
2022-09-10T06:15:19.690Z,19.80
2022-09-10T06:19:22.038Z,20.00
2022-09-10T06:23:23.712Z,20.30
2022-09-10T06:27:25.383Z,20.30
2022-09-10T06:31:27.732Z,20.60
2022-09-10T06:35:29.613Z,20.90
2022-09-10T06:39:31.290Z,20.50
2022-09-10T06:43:37.373Z,20.60
2022-09-10T06:48:32.436Z,20.70
2022-09-10T06:52:01.626Z,20.40
2022-09-10T06:56:11.081Z,19.70
2022-09-10T07:00:14.190Z,20.10
2022-09-10T07:04:15.819Z,19.70
2022-09-10T07:08:21.157Z,19.90
2022-09-10T07:12:22.989Z,19.20
2022-09-10T07:16:26.949Z,19.40
2022-09-10T07:20:29.408Z,19.20
2022-09-10T07:24:31.035Z,19.80
2022-09-10T07:28:32.695Z,19.60
2022-09-10T07:32:35.739Z,19.50
2022-09-10T07:36:37.546Z,19.10
2022-09-10T07:40:40.080Z,19.40
2022-09-10T07:44:42.597Z,18.80
2022-09-10T07:48:44.267Z,19.10
2022-09-10T07:52:46.144Z,19.20
2022-09-10T07:56:48.598Z,19.00
2022-09-10T08:00:50.568Z,19.50
2022-09-10T08:05:17.046Z,19.60
2022-09-10T08:09:56.913Z,20.30
2022-09-10T08:13:59.029Z,21.00
2022-09-10T08:18:01.350Z,20.50
2022-09-10T08:22:03.585Z,20.10
2022-09-10T08:26:08.091Z,20.40
2022-09-10T08:30:12.232Z,20.90
2022-09-10T08:34:13.950Z,20.00
2022-09-10T08:38:15.577Z,20.00
2022-09-10T08:42:26.843Z,20.70
2022-09-10T08:46:59.744Z,20.80
2022-09-10T08:51:15.797Z,20.70
2022-09-10T08:55:17.438Z,20.30
2022-09-10T08:59:29.082Z,20.70
2022-09-10T09:03:45.493Z,21.00
2022-09-10T09:07:48.427Z,21.70
2022-09-10T09:12:00.553Z,21.40
2022-09-10T09:16:48.580Z,21.50
2022-09-10T09:21:00.803Z,20.60
2022-09-10T09:25:23.469Z,21.60
2022-09-10T09:29:50.722Z,22.30
2022-09-10T09:33:56.865Z,21.50
2022-09-10T09:38:23.695Z,20.80
2022-09-10T09:42:35.585Z,20.40
2022-09-10T09:46:38.165Z,20.70
2022-09-10T09:50:43.693Z,20.70
2022-09-10T09:55:14.793Z,20.50
2022-09-10T09:59:35.646Z,19.40
2022-09-10T10:04:01.525Z,19.80
2022-09-10T10:08:03.369Z,20.40
2022-09-10T10:12:06.377Z,20.50
2022-09-10T10:16:23.335Z,20.70
2022-09-10T10:20:36.969Z,20.80
2022-09-10T10:24:38.614Z,20.30
2022-09-10T10:28:46.506Z,20.50
2022-09-10T10:32:56.170Z,20.30
2022-09-10T10:37:00.591Z,20.80
2022-09-10T10:41:34.530Z,20.60
2022-09-10T10:45:50.685Z,20.80
2022-09-10T10:50:21.277Z,21.00
2022-09-10T10:54:23.646Z,21.50
2022-09-10T10:58:34.525Z,21.60
2022-09-10T11:02:45.476Z,21.20
2022-09-10T11:06:55.907Z,20.70
2022-09-10T11:11:13.229Z,20.70
2022-09-10T11:15:35.034Z,21.30
2022-09-10T11:19:42.494Z,21.60
2022-09-10T11:23:52.481Z,20.60
2022-09-10T11:28:14.609Z,20.50
2022-09-10T11:32:31.924Z,20.30
2022-09-10T11:36:43.385Z,20.30
2022-09-10T11:41:09.093Z,20.40
2022-09-10T11:45:20.089Z,21.30
2022-09-10T11:49:32.401Z,22.30
2022-09-10T11:53:36.945Z,22.10
2022-09-10T11:58:02.284Z,21.10
2022-09-10T12:02:50.216Z,20.30
2022-09-10T12:07:16.558Z,19.80
2022-09-10T12:11:43.387Z,18.90
2022-09-10T12:16:15.911Z,19.70
2022-09-10T12:20:24.077Z,20.20
2022-09-10T12:24:33.026Z,20.60
2022-09-10T12:28:53.488Z,21.10
2022-09-10T12:33:01.076Z,21.00
2022-09-10T12:37:02.746Z,21.50
2022-09-10T12:41:09.815Z,21.60
2022-09-10T12:45:12.068Z,21.20
2022-09-10T12:49:16.791Z,21.00
2022-09-10T12:53:43.903Z,21.30
2022-09-10T12:58:08.521Z,21.40
2022-09-10T13:02:35.348Z,21.40
2022-09-10T13:06:42.623Z,21.40
2022-09-10T13:11:06.978Z,21.50
2022-09-10T13:15:20.197Z,22.30
2022-09-10T13:19:21.775Z,22.50
2022-09-10T13:23:48.067Z,22.70
2022-09-10T13:27:49.794Z,22.70
2022-09-10T13:32:07.098Z,22.00
2022-09-10T13:36:30.230Z,21.80
2022-09-10T13:40:38.665Z,21.80
2022-09-10T13:44:46.418Z,22.10
2022-09-10T13:49:10.478Z,21.90
2022-09-10T13:53:14.607Z,21.90
2022-09-10T13:57:27.225Z,21.50
2022-09-10T14:01:49.503Z,21.60
2022-09-10T14:05:57.312Z,21.90
2022-09-10T14:10:01.879Z,21.20
2022-09-10T14:14:33.859Z,21.50
2022-09-10T14:18:45.356Z,21.50
2022-09-10T14:22:47.469Z,21.50
2022-09-10T14:27:15.718Z,22.30
2022-09-10T14:31:26.576Z,21.70
2022-09-10T14:35:55.517Z,21.40
2022-09-10T14:40:01.209Z,20.70
2022-09-10T14:44:22.211Z,20.50
2022-09-10T14:48:36.914Z,20.90
2022-09-10T14:52:39.060Z,21.20
2022-09-10T14:56:46.514Z,20.90
2022-09-10T15:00:48.271Z,21.10
2022-09-10T15:04:50.729Z,21.60
2022-09-10T15:08:54.227Z,21.70
2022-09-10T15:12:59.689Z,21.70
2022-09-10T15:17:02.925Z,21.90
2022-09-10T15:21:07.093Z,22.70
2022-09-10T15:25:24.432Z,23.10
2022-09-10T15:29:26.160Z,22.10
2022-09-10T15:33:28.514Z,21.60
2022-09-10T15:37:30.178Z,21.10
2022-09-10T15:41:32.039Z,20.90
2022-09-10T15:45:37.436Z,21.30
2022-09-10T15:49:39.210Z,21.50
2022-09-10T15:53:41.849Z,21.60
2022-09-10T15:57:43.610Z,21.30
2022-09-10T16:01:45.399Z,21.50
2022-09-10T16:05:47.102Z,21.10
2022-09-10T16:09:48.788Z,20.90
2022-09-10T16:13:50.864Z,20.90
2022-09-10T16:17:52.661Z,21.10
2022-09-10T16:21:54.343Z,20.30
2022-09-10T16:25:55.992Z,21.00
2022-09-10T16:29:57.649Z,21.40
2022-09-10T16:34:03.244Z,20.80
2022-09-10T16:38:04.989Z,19.80
2022-09-10T16:42:07.039Z,20.30
2022-09-10T16:46:10.730Z,20.90
2022-09-10T16:50:12.467Z,21.20
2022-09-10T16:54:15.641Z,21.60
2022-09-10T16:58:17.674Z,21.90
2022-09-10T17:02:19.455Z,22.10
2022-09-10T17:06:27.819Z,22.40
2022-09-10T17:10:29.461Z,22.20
2022-09-10T17:14:31.251Z,21.70
2022-09-10T17:18:32.974Z,21.90
2022-09-10T17:22:35.301Z,21.70
2022-09-10T17:26:38.151Z,21.10
2022-09-10T17:30:39.876Z,20.80
2022-09-10T17:34:41.816Z,20.50
2022-09-10T17:38:43.774Z,19.40
2022-09-10T17:42:45.437Z,19.90
2022-09-10T17:46:47.110Z,19.60
2022-09-10T17:50:50.045Z,19.20
2022-09-10T17:54:53.892Z,18.10
2022-09-10T17:58:57.938Z,18.10
2022-09-10T18:02:59.623Z,18.70
2022-09-10T18:07:01.265Z,19.40
2022-09-10T18:11:11.775Z,20.00
2022-09-10T18:15:13.463Z,19.20
2022-09-10T18:19:17.209Z,19.20
2022-09-10T18:23:19.474Z,19.60
2022-09-10T18:27:21.094Z,20.70
2022-09-10T18:31:24.963Z,20.90
2022-09-10T18:35:27.492Z,20.70
2022-09-10T18:39:31.711Z,20.80
2022-09-10T18:43:37.490Z,21.00
2022-09-10T18:47:45.054Z,20.60
2022-09-10T18:51:47.415Z,20.00
2022-09-10T18:55:49.421Z,19.60
2022-09-10T18:59:54.003Z,20.20
2022-09-10T19:03:57.504Z,20.10
2022-09-10T19:07:59.482Z,20.20
2022-09-10T19:12:01.430Z,20.50
2022-09-10T19:16:03.743Z,20.50
2022-09-10T19:20:06.060Z,20.60
2022-09-10T19:24:07.696Z,20.60
2022-09-10T19:28:09.430Z,20.20
2022-09-10T19:32:11.409Z,20.30
2022-09-10T19:36:16.413Z,20.40
2022-09-10T19:40:18.054Z,20.70
2022-09-10T19:44:20.096Z,20.40
2022-09-10T19:48:22.742Z,20.20
2022-09-10T19:52:25.590Z,19.80
2022-09-10T19:56:31.410Z,19.60
2022-09-10T20:00:46.229Z,19.50
2022-09-10T20:04:48.416Z,20.10
2022-09-10T20:08:50.417Z,19.90
2022-09-10T20:12:53.378Z,19.80
2022-09-10T20:16:56.889Z,20.30
2022-09-10T20:21:23.906Z,20.30
2022-09-10T20:25:26.569Z,20.20
2022-09-10T20:29:29.599Z,20.00
2022-09-10T20:33:31.290Z,20.10
2022-09-10T20:37:34.464Z,19.90
2022-09-10T20:41:37.865Z,19.50
2022-09-10T20:45:43.847Z,19.60
2022-09-10T20:49:45.997Z,19.70
2022-09-10T20:53:48.510Z,19.50
2022-09-10T20:57:50.251Z,19.60
2022-09-10T21:01:52.312Z,19.80
2022-09-10T21:05:54.125Z,20.10
2022-09-10T21:09:55.783Z,19.70
2022-09-10T21:14:00.011Z,19.80
2022-09-10T21:18:01.643Z,20.10
2022-09-10T21:22:03.370Z,20.50
2022-09-10T21:26:05.633Z,20.60
2022-09-10T21:30:07.717Z,20.30
2022-09-10T21:34:10.080Z,20.10
2022-09-10T21:38:12.640Z,20.20
2022-09-10T21:42:14.526Z,20.20
2022-09-10T21:46:16.218Z,19.50
2022-09-10T21:50:17.910Z,18.90
2022-09-10T21:54:21.268Z,18.90
2022-09-10T21:58:24.431Z,18.70
2022-09-10T22:02:26.318Z,18.80
2022-09-10T22:06:31.924Z,19.00
2022-09-10T22:10:33.984Z,18.90
2022-09-10T22:14:35.621Z,19.00
2022-09-10T22:18:38.047Z,19.60
2022-09-10T22:22:39.686Z,19.40
2022-09-10T22:26:44.487Z,19.70
2022-09-10T22:30:46.108Z,19.50
2022-09-10T22:34:49.236Z,19.70
2022-09-10T22:38:56.324Z,19.70
2022-09-10T22:42:58.837Z,19.10
2022-09-10T22:47:00.505Z,19.00
2022-09-10T22:51:02.401Z,19.20
2022-09-10T22:55:05.497Z,20.00
2022-09-10T22:59:11.198Z,19.60
2022-09-10T23:03:12.825Z,19.80
2022-09-10T23:07:15.781Z,20.10
2022-09-10T23:11:17.621Z,20.20
2022-09-10T23:15:19.244Z,20.40
2022-09-10T23:19:22.608Z,20.70
2022-09-10T23:23:24.321Z,20.20
2022-09-10T23:27:25.967Z,20.00
2022-09-10T23:31:29.980Z,19.90
2022-09-10T23:35:31.659Z,19.80
2022-09-10T23:39:33.308Z,19.90
2022-09-10T23:43:35.913Z,19.80
2022-09-10T23:47:37.591Z,19.80
2022-09-10T23:51:39.568Z,19.60
2022-09-10T23:55:41.245Z,19.10
2022-09-10T23:59:42.867Z,19.40
